West End, New York
Current Conditions -  °F | °C
As of 11:55 AM on Friday 24 Oct 2014 (Local Time) from KNY0 Reporting Station
Overcast Overcast  
Wind Chill:   Ceiling: 2500
Heat Index:   Visibility: 10mi
Dew Point:   Wind: 9mph
Humidity: 85%   Direction: 270°W
Pressure: 29.85"   Gusts: NA
Location:  42.4787°N, 75.0181°W
Report Text: KNY0 241555Z AUTO 27008KT 10SM OVC025 08/06 A2985 RMK AO2 T00800057
Loading
Personal Weather Stations






























Interactive Weather Map
Tropical Storm Tracking
New forecast layout! Learn more

10-Day Weather Forecast

Advertisements
Track Severe Weather on mobile